sensor_id;sensor_type;location;lat;lon;timestamp;P1;durP1;ratioP1;P2;durP2;ratioP2
20721;SDS011;10522;52.198;9.890;2022-08-01T00:00:33;3.50;;;3.10;;
20721;SDS011;10522;52.198;9.890;2022-08-01T00:02:59;4.17;;;3.27;;
20721;SDS011;10522;52.198;9.890;2022-08-01T00:05:26;5.73;;;3.67;;
20721;SDS011;10522;52.198;9.890;2022-08-01T00:07:52;4.40;;;3.30;;
20721;SDS011;10522;52.198;9.890;2022-08-01T00:10:17;5.90;;;3.63;;
20721;SDS011;10522;52.198;9.890;2022-08-01T00:12:44;3.87;;;2.80;;
20721;SDS011;10522;52.198;9.890;2022-08-01T00:15:11;4.23;;;2.50;;
20721;SDS011;10522;52.198;9.890;2022-08-01T00:17:40;6.17;;;4.17;;
20721;SDS011;10522;52.198;9.890;2022-08-01T00:20:10;5.43;;;4.03;;
20721;SDS011;10522;52.198;9.890;2022-08-01T00:22:37;5.57;;;4.17;;
20721;SDS011;10522;52.198;9.890;2022-08-01T00:25:03;4.00;;;3.60;;
20721;SDS011;10522;52.198;9.890;2022-08-01T00:27:30;8.77;;;3.83;;
20721;SDS011;10522;52.198;9.890;2022-08-01T00:29:56;5.50;;;3.83;;
20721;SDS011;10522;52.198;9.890;2022-08-01T00:32:22;4.40;;;3.57;;
20721;SDS011;10522;52.198;9.890;2022-08-01T00:34:48;9.03;;;4.10;;
20721;SDS011;10522;52.198;9.890;2022-08-01T00:37:13;5.37;;;4.13;;
20721;SDS011;10522;52.198;9.890;2022-08-01T00:39:39;4.00;;;3.33;;
20721;SDS011;10522;52.198;9.890;2022-08-01T00:42:11;9.40;;;4.00;;
20721;SDS011;10522;52.198;9.890;2022-08-01T00:44:37;7.67;;;3.43;;
20721;SDS011;10522;52.198;9.890;2022-08-01T00:47:03;5.47;;;3.57;;
20721;SDS011;10522;52.198;9.890;2022-08-01T00:49:29;7.67;;;3.97;;
20721;SDS011;10522;52.198;9.890;2022-08-01T00:51:55;7.40;;;5.20;;
20721;SDS011;10522;52.198;9.890;2022-08-01T00:54:23;6.47;;;3.77;;
20721;SDS011;10522;52.198;9.890;2022-08-01T00:56:50;5.27;;;4.50;;
20721;SDS011;10522;52.198;9.890;2022-08-01T00:59:16;5.70;;;4.10;;
20721;SDS011;10522;52.198;9.890;2022-08-01T01:01:43;5.83;;;4.00;;
20721;SDS011;10522;52.198;9.890;2022-08-01T01:04:09;6.27;;;3.63;;
20721;SDS011;10522;52.198;9.890;2022-08-01T01:06:42;6.53;;;4.07;;
20721;SDS011;10522;52.198;9.890;2022-08-01T01:09:32;9.47;;;4.03;;
20721;SDS011;10522;52.198;9.890;2022-08-01T01:12:02;7.83;;;4.53;;
20721;SDS011;10522;52.198;9.890;2022-08-01T01:14:55;4.97;;;2.73;;
20721;SDS011;10522;52.198;9.890;2022-08-01T01:20:30;11.77;;;2.63;;
20721;SDS011;10522;52.198;9.890;2022-08-01T01:23:14;5.33;;;3.57;;
20721;SDS011;10522;52.198;9.890;2022-08-01T01:29:32;6.20;;;2.83;;
20721;SDS011;10522;52.198;9.890;2022-08-01T01:32:07;11.30;;;2.87;;
20721;SDS011;10522;52.198;9.890;2022-08-01T01:35:10;6.60;;;3.07;;
20721;SDS011;10522;52.198;9.890;2022-08-01T01:37:42;4.27;;;2.17;;
20721;SDS011;10522;52.198;9.890;2022-08-01T01:40:09;2.27;;;2.07;;
20721;SDS011;10522;52.198;9.890;2022-08-01T01:42:56;2.90;;;1.77;;
20721;SDS011;10522;52.198;9.890;2022-08-01T01:45:23;7.33;;;1.73;;
20721;SDS011;10522;52.198;9.890;2022-08-01T01:47:50;1.60;;;1.50;;
20721;SDS011;10522;52.198;9.890;2022-08-01T01:50:17;2.07;;;1.40;;
20721;SDS011;10522;52.198;9.890;2022-08-01T01:52:45;1.43;;;1.33;;
20721;SDS011;10522;52.198;9.890;2022-08-01T01:55:12;1.60;;;1.50;;
20721;SDS011;10522;52.198;9.890;2022-08-01T01:57:40;2.07;;;1.77;;
20721;SDS011;10522;52.198;9.890;2022-08-01T02:00:09;1.47;;;1.37;;
20721;SDS011;10522;52.198;9.890;2022-08-01T02:02:36;1.57;;;1.47;;
20721;SDS011;10522;52.198;9.890;2022-08-01T02:05:04;4.30;;;1.60;;
20721;SDS011;10522;52.198;9.890;2022-08-01T02:07:31;3.67;;;1.43;;
20721;SDS011;10522;52.198;9.890;2022-08-01T02:09:57;1.37;;;1.27;;
20721;SDS011;10522;52.198;9.890;2022-08-01T02:12:25;3.97;;;1.73;;
20721;SDS011;10522;52.198;9.890;2022-08-01T02:14:52;1.50;;;1.40;;
20721;SDS011;10522;52.198;9.890;2022-08-01T02:17:20;1.67;;;1.50;;
20721;SDS011;10522;52.198;9.890;2022-08-01T02:19:48;1.67;;;1.57;;
20721;SDS011;10522;52.198;9.890;2022-08-01T02:22:34;2.10;;;1.90;;
20721;SDS011;10522;52.198;9.890;2022-08-01T02:25:25;1.70;;;1.60;;
20721;SDS011;10522;52.198;9.890;2022-08-01T02:31:01;1.97;;;1.47;;
20721;SDS011;10522;52.198;9.890;2022-08-01T02:33:36;2.10;;;1.90;;
20721;SDS011;10522;52.198;9.890;2022-08-01T02:36:04;1.87;;;1.50;;
20721;SDS011;10522;52.198;9.890;2022-08-01T02:38:37;3.00;;;1.97;;
20721;SDS011;10522;52.198;9.890;2022-08-01T02:41:07;3.57;;;2.17;;
20721;SDS011;10522;52.198;9.890;2022-08-01T02:43:38;3.20;;;2.13;;
20721;SDS011;10522;52.198;9.890;2022-08-01T02:46:11;2.97;;;1.83;;
20721;SDS011;10522;52.198;9.890;2022-08-01T02:48:42;3.40;;;2.60;;
20721;SDS011;10522;52.198;9.890;2022-08-01T02:51:10;1.60;;;1.30;;
20721;SDS011;10522;52.198;9.890;2022-08-01T02:53:37;1.30;;;1.10;;
20721;SDS011;10522;52.198;9.890;2022-08-01T02:56:06;0.93;;;0.93;;
20721;SDS011;10522;52.198;9.890;2022-08-01T02:58:33;1.10;;;1.00;;
20721;SDS011;10522;52.198;9.890;2022-08-01T03:01:01;1.10;;;1.00;;
20721;SDS011;10522;52.198;9.890;2022-08-01T03:03:28;1.17;;;1.00;;
20721;SDS011;10522;52.198;9.890;2022-08-01T03:05:56;1.00;;;0.90;;
20721;SDS011;10522;52.198;9.890;2022-08-01T03:08:28;1.30;;;0.83;;
20721;SDS011;10522;52.198;9.890;2022-08-01T03:10:56;1.47;;;1.17;;
20721;SDS011;10522;52.198;9.890;2022-08-01T03:13:31;1.70;;;0.90;;
20721;SDS011;10522;52.198;9.890;2022-08-01T03:15:58;3.37;;;0.77;;
20721;SDS011;10522;52.198;9.890;2022-08-01T03:18:26;1.77;;;1.30;;
20721;SDS011;10522;52.198;9.890;2022-08-01T03:20:54;3.10;;;1.23;;
20721;SDS011;10522;52.198;9.890;2022-08-01T03:23:26;1.50;;;1.40;;
20721;SDS011;10522;52.198;9.890;2022-08-01T03:25:56;2.13;;;1.90;;
20721;SDS011;10522;52.198;9.890;2022-08-01T03:28:22;3.93;;;2.13;;
20721;SDS011;10522;52.198;9.890;2022-08-01T03:30:50;4.20;;;2.47;;
20721;SDS011;10522;52.198;9.890;2022-08-01T03:33:16;2.93;;;2.37;;
20721;SDS011;10522;52.198;9.890;2022-08-01T03:35:43;2.60;;;2.40;;
20721;SDS011;10522;52.198;9.890;2022-08-01T03:38:18;3.77;;;2.60;;
20721;SDS011;10522;52.198;9.890;2022-08-01T03:40:52;6.43;;;3.23;;
20721;SDS011;10522;52.198;9.890;2022-08-01T03:46:31;5.77;;;2.30;;
20721;SDS011;10522;52.198;9.890;2022-08-01T03:49:41;5.10;;;2.50;;
20721;SDS011;10522;52.198;9.890;2022-08-01T03:52:41;2.40;;;2.00;;
20721;SDS011;10522;52.198;9.890;2022-08-01T03:58:06;4.00;;;3.50;;
20721;SDS011;10522;52.198;9.890;2022-08-01T04:00:33;3.13;;;1.77;;
20721;SDS011;10522;52.198;9.890;2022-08-01T04:03:03;2.93;;;2.40;;
20721;SDS011;10522;52.198;9.890;2022-08-01T04:05:29;2.80;;;1.90;;
20721;SDS011;10522;52.198;9.890;2022-08-01T04:07:56;2.63;;;1.63;;
20721;SDS011;10522;52.198;9.890;2022-08-01T04:10:22;2.40;;;2.00;;
20721;SDS011;10522;52.198;9.890;2022-08-01T04:12:49;4.50;;;2.80;;
20721;SDS011;10522;52.198;9.890;2022-08-01T04:15:14;7.73;;;2.33;;
20721;SDS011;10522;52.198;9.890;2022-08-01T04:17:40;2.93;;;2.37;;
20721;SDS011;10522;52.198;9.890;2022-08-01T04:20:06;2.50;;;1.87;;
20721;SDS011;10522;52.198;9.890;2022-08-01T04:22:32;6.07;;;2.20;;
20721;SDS011;10522;52.198;9.890;2022-08-01T04:24:58;3.03;;;2.63;;
20721;SDS011;10522;52.198;9.890;2022-08-01T04:27:32;3.30;;;2.53;;
20721;SDS011;10522;52.198;9.890;2022-08-01T04:30:02;4.70;;;2.57;;
20721;SDS011;10522;52.198;9.890;2022-08-01T04:32:29;3.90;;;2.40;;
20721;SDS011;10522;52.198;9.890;2022-08-01T04:34:59;2.83;;;2.10;;
20721;SDS011;10522;52.198;9.890;2022-08-01T04:37:34;7.37;;;2.77;;
20721;SDS011;10522;52.198;9.890;2022-08-01T04:40:02;4.47;;;2.60;;
20721;SDS011;10522;52.198;9.890;2022-08-01T04:42:30;4.40;;;3.00;;
20721;SDS011;10522;52.198;9.890;2022-08-01T04:44:56;2.87;;;2.27;;
20721;SDS011;10522;52.198;9.890;2022-08-01T04:47:22;3.03;;;2.53;;
20721;SDS011;10522;52.198;9.890;2022-08-01T04:49:48;3.67;;;2.50;;
20721;SDS011;10522;52.198;9.890;2022-08-01T04:52:14;3.10;;;2.23;;
20721;SDS011;10522;52.198;9.890;2022-08-01T04:54:42;4.43;;;2.60;;
20721;SDS011;10522;52.198;9.890;2022-08-01T04:57:08;3.17;;;2.57;;
20721;SDS011;10522;52.198;9.890;2022-08-01T04:59:34;3.83;;;1.87;;
20721;SDS011;10522;52.198;9.890;2022-08-01T05:02:05;3.30;;;2.50;;
20721;SDS011;10522;52.198;9.890;2022-08-01T05:04:39;3.77;;;2.03;;
20721;SDS011;10522;52.198;9.890;2022-08-01T05:07:06;7.50;;;3.03;;
20721;SDS011;10522;52.198;9.890;2022-08-01T05:09:32;6.23;;;3.17;;
20721;SDS011;10522;52.198;9.890;2022-08-01T05:11:59;5.07;;;3.80;;
20721;SDS011;10522;52.198;9.890;2022-08-01T05:14:27;4.43;;;2.97;;
20721;SDS011;10522;52.198;9.890;2022-08-01T05:16:53;8.37;;;3.20;;
20721;SDS011;10522;52.198;9.890;2022-08-01T05:19:19;4.70;;;2.97;;
20721;SDS011;10522;52.198;9.890;2022-08-01T05:21:45;4.37;;;3.27;;
20721;SDS011;10522;52.198;9.890;2022-08-01T05:24:10;5.57;;;3.53;;
20721;SDS011;10522;52.198;9.890;2022-08-01T05:26:36;5.47;;;3.67;;
20721;SDS011;10522;52.198;9.890;2022-08-01T05:29:01;3.67;;;2.90;;
20721;SDS011;10522;52.198;9.890;2022-08-01T05:31:27;3.00;;;2.63;;
20721;SDS011;10522;52.198;9.890;2022-08-01T05:33:53;4.73;;;3.10;;
20721;SDS011;10522;52.198;9.890;2022-08-01T05:36:18;3.43;;;2.93;;
20721;SDS011;10522;52.198;9.890;2022-08-01T05:38:44;3.93;;;2.90;;
20721;SDS011;10522;52.198;9.890;2022-08-01T05:41:10;5.10;;;3.70;;
20721;SDS011;10522;52.198;9.890;2022-08-01T05:43:35;3.97;;;2.77;;
20721;SDS011;10522;52.198;9.890;2022-08-01T05:46:01;3.53;;;1.93;;
20721;SDS011;10522;52.198;9.890;2022-08-01T05:48:26;2.40;;;2.20;;
20721;SDS011;10522;52.198;9.890;2022-08-01T05:50:53;1.00;;;0.90;;
20721;SDS011;10522;52.198;9.890;2022-08-01T05:53:19;1.37;;;1.10;;
20721;SDS011;10522;52.198;9.890;2022-08-01T05:55:44;0.50;;;0.50;;
20721;SDS011;10522;52.198;9.890;2022-08-01T05:58:10;3.23;;;0.80;;
20721;SDS011;10522;52.198;9.890;2022-08-01T06:00:35;1.03;;;0.90;;
20721;SDS011;10522;52.198;9.890;2022-08-01T06:03:01;1.03;;;0.87;;
20721;SDS011;10522;52.198;9.890;2022-08-01T06:05:26;1.33;;;1.20;;
20721;SDS011;10522;52.198;9.890;2022-08-01T06:07:52;2.50;;;0.93;;
20721;SDS011;10522;52.198;9.890;2022-08-01T06:10:17;1.23;;;1.00;;
20721;SDS011;10522;52.198;9.890;2022-08-01T06:12:43;1.03;;;0.93;;
20721;SDS011;10522;52.198;9.890;2022-08-01T06:15:08;0.90;;;0.70;;
20721;SDS011;10522;52.198;9.890;2022-08-01T06:17:34;0.67;;;0.67;;
20721;SDS011;10522;52.198;9.890;2022-08-01T06:20:00;1.00;;;0.90;;
20721;SDS011;10522;52.198;9.890;2022-08-01T06:22:25;1.37;;;0.90;;
20721;SDS011;10522;52.198;9.890;2022-08-01T06:24:51;0.97;;;0.80;;
20721;SDS011;10522;52.198;9.890;2022-08-01T06:27:17;0.93;;;0.90;;
20721;SDS011;10522;52.198;9.890;2022-08-01T06:29:42;1.10;;;1.00;;
20721;SDS011;10522;52.198;9.890;2022-08-01T06:32:08;2.77;;;1.00;;
20721;SDS011;10522;52.198;9.890;2022-08-01T06:34:34;3.27;;;1.00;;
20721;SDS011;10522;52.198;9.890;2022-08-01T06:37:00;1.47;;;1.20;;
20721;SDS011;10522;52.198;9.890;2022-08-01T06:39:25;1.10;;;1.00;;
20721;SDS011;10522;52.198;9.890;2022-08-01T06:41:51;1.00;;;1.00;;
20721;SDS011;10522;52.198;9.890;2022-08-01T06:44:16;2.00;;;1.30;;
20721;SDS011;10522;52.198;9.890;2022-08-01T06:46:42;1.10;;;1.00;;
20721;SDS011;10522;52.198;9.890;2022-08-01T06:49:07;3.00;;;1.73;;
20721;SDS011;10522;52.198;9.890;2022-08-01T06:51:33;1.23;;;1.13;;
20721;SDS011;10522;52.198;9.890;2022-08-01T06:53:58;1.43;;;1.27;;
20721;SDS011;10522;52.198;9.890;2022-08-01T06:56:24;3.67;;;1.33;;
20721;SDS011;10522;52.198;9.890;2022-08-01T06:58:50;1.60;;;1.43;;
20721;SDS011;10522;52.198;9.890;2022-08-01T07:01:15;2.73;;;1.47;;
20721;SDS011;10522;52.198;9.890;2022-08-01T07:03:41;1.90;;;1.70;;
20721;SDS011;10522;52.198;9.890;2022-08-01T07:06:07;2.37;;;1.80;;
20721;SDS011;10522;52.198;9.890;2022-08-01T07:08:32;1.20;;;1.10;;
20721;SDS011;10522;52.198;9.890;2022-08-01T07:10:58;1.20;;;1.10;;
20721;SDS011;10522;52.198;9.890;2022-08-01T07:13:27;0.63;;;0.63;;
20721;SDS011;10522;52.198;9.890;2022-08-01T07:15:55;1.40;;;1.03;;
20721;SDS011;10522;52.198;9.890;2022-08-01T07:18:21;2.50;;;1.60;;
20721;SDS011;10522;52.198;9.890;2022-08-01T07:20:46;2.00;;;1.73;;
20721;SDS011;10522;52.198;9.890;2022-08-01T07:23:12;2.17;;;1.27;;
20721;SDS011;10522;52.198;9.890;2022-08-01T07:25:38;1.50;;;1.30;;
20721;SDS011;10522;52.198;9.890;2022-08-01T07:28:04;1.20;;;1.10;;
20721;SDS011;10522;52.198;9.890;2022-08-01T07:30:29;1.47;;;1.30;;
20721;SDS011;10522;52.198;9.890;2022-08-01T07:32:55;1.60;;;1.33;;
20721;SDS011;10522;52.198;9.890;2022-08-01T07:35:21;1.20;;;1.10;;
20721;SDS011;10522;52.198;9.890;2022-08-01T07:37:46;1.40;;;1.30;;
20721;SDS011;10522;52.198;9.890;2022-08-01T07:40:12;1.23;;;1.07;;
20721;SDS011;10522;52.198;9.890;2022-08-01T07:42:38;0.73;;;0.70;;
20721;SDS011;10522;52.198;9.890;2022-08-01T07:45:04;1.20;;;1.10;;
20721;SDS011;10522;52.198;9.890;2022-08-01T07:47:29;1.73;;;1.40;;
20721;SDS011;10522;52.198;9.890;2022-08-01T07:49:58;1.00;;;0.90;;
20721;SDS011;10522;52.198;9.890;2022-08-01T07:52:25;1.20;;;1.00;;
20721;SDS011;10522;52.198;9.890;2022-08-01T07:54:51;1.80;;;1.00;;
20721;SDS011;10522;52.198;9.890;2022-08-01T07:57:17;1.70;;;1.20;;
20721;SDS011;10522;52.198;9.890;2022-08-01T07:59:43;1.70;;;1.00;;
20721;SDS011;10522;52.198;9.890;2022-08-01T08:02:08;1.47;;;1.20;;
20721;SDS011;10522;52.198;9.890;2022-08-01T08:04:34;2.07;;;1.70;;
20721;SDS011;10522;52.198;9.890;2022-08-01T08:06:59;1.50;;;1.23;;
20721;SDS011;10522;52.198;9.890;2022-08-01T08:09:25;1.30;;;1.20;;
20721;SDS011;10522;52.198;9.890;2022-08-01T08:11:51;2.70;;;1.40;;
20721;SDS011;10522;52.198;9.890;2022-08-01T08:14:17;1.83;;;1.53;;
20721;SDS011;10522;52.198;9.890;2022-08-01T08:16:43;1.87;;;1.57;;
20721;SDS011;10522;52.198;9.890;2022-08-01T08:19:10;2.07;;;1.40;;
20721;SDS011;10522;52.198;9.890;2022-08-01T08:21:36;1.70;;;1.60;;
20721;SDS011;10522;52.198;9.890;2022-08-01T08:24:02;1.40;;;1.30;;
20721;SDS011;10522;52.198;9.890;2022-08-01T08:26:47;1.37;;;1.27;;
20721;SDS011;10522;52.198;9.890;2022-08-01T08:29:13;1.20;;;1.10;;
20721;SDS011;10522;52.198;9.890;2022-08-01T08:31:39;1.50;;;1.10;;
20721;SDS011;10522;52.198;9.890;2022-08-01T08:34:05;1.20;;;1.10;;
20721;SDS011;10522;52.198;9.890;2022-08-01T08:36:30;1.10;;;1.00;;
20721;SDS011;10522;52.198;9.890;2022-08-01T08:38:56;2.17;;;1.33;;
20721;SDS011;10522;52.198;9.890;2022-08-01T08:41:22;1.47;;;1.00;;
20721;SDS011;10522;52.198;9.890;2022-08-01T08:43:48;1.43;;;1.10;;
20721;SDS011;10522;52.198;9.890;2022-08-01T08:46:14;1.90;;;1.63;;
20721;SDS011;10522;52.198;9.890;2022-08-01T08:48:41;2.93;;;1.20;;
20721;SDS011;10522;52.198;9.890;2022-08-01T08:51:07;1.13;;;1.07;;
20721;SDS011;10522;52.198;9.890;2022-08-01T08:53:35;5.80;;;1.50;;
20721;SDS011;10522;52.198;9.890;2022-08-01T08:56:03;1.53;;;1.40;;
20721;SDS011;10522;52.198;9.890;2022-08-01T08:58:31;3.10;;;1.40;;
20721;SDS011;10522;52.198;9.890;2022-08-01T09:01:02;1.57;;;1.47;;
20721;SDS011;10522;52.198;9.890;2022-08-01T09:03:30;1.70;;;1.60;;
20721;SDS011;10522;52.198;9.890;2022-08-01T09:05:56;2.40;;;1.33;;
20721;SDS011;10522;52.198;9.890;2022-08-01T09:08:22;1.17;;;1.03;;
20721;SDS011;10522;52.198;9.890;2022-08-01T09:10:47;1.40;;;0.80;;
20721;SDS011;10522;52.198;9.890;2022-08-01T09:13:14;0.70;;;0.70;;
20721;SDS011;10522;52.198;9.890;2022-08-01T09:21:03;2.47;;;0.80;;
20721;SDS011;10522;52.198;9.890;2022-08-01T09:23:42;3.50;;;1.03;;
20721;SDS011;10522;52.198;9.890;2022-08-01T09:26:13;1.37;;;1.10;;
20721;SDS011;10522;52.198;9.890;2022-08-01T09:28:41;1.63;;;1.33;;
20721;SDS011;10522;52.198;9.890;2022-08-01T09:31:09;1.37;;;0.80;;
20721;SDS011;10522;52.198;9.890;2022-08-01T09:36:16;0.87;;;0.80;;
20721;SDS011;10522;52.198;9.890;2022-08-01T09:38:41;1.57;;;0.67;;
20721;SDS011;10522;52.198;9.890;2022-08-01T09:41:07;1.33;;;1.00;;
20721;SDS011;10522;52.198;9.890;2022-08-01T09:43:32;1.07;;;0.83;;
20721;SDS011;10522;52.198;9.890;2022-08-01T09:45:59;0.90;;;0.90;;
20721;SDS011;10522;52.198;9.890;2022-08-01T09:48:29;0.70;;;0.70;;
20721;SDS011;10522;52.198;9.890;2022-08-01T09:50:54;1.33;;;0.80;;
20721;SDS011;10522;52.198;9.890;2022-08-01T09:53:21;0.83;;;0.83;;
20721;SDS011;10522;52.198;9.890;2022-08-01T09:55:47;1.60;;;1.20;;
20721;SDS011;10522;52.198;9.890;2022-08-01T09:58:15;1.33;;;1.23;;
20721;SDS011;10522;52.198;9.890;2022-08-01T10:00:41;1.50;;;1.17;;
20721;SDS011;10522;52.198;9.890;2022-08-01T10:03:20;2.03;;;1.43;;
20721;SDS011;10522;52.198;9.890;2022-08-01T10:05:48;1.47;;;1.37;;
20721;SDS011;10522;52.198;9.890;2022-08-01T10:08:14;0.93;;;0.93;;
20721;SDS011;10522;52.198;9.890;2022-08-01T10:10:39;0.80;;;0.80;;
20721;SDS011;10522;52.198;9.890;2022-08-01T10:13:05;0.70;;;0.70;;
20721;SDS011;10522;52.198;9.890;2022-08-01T10:15:31;1.20;;;0.80;;
20721;SDS011;10522;52.198;9.890;2022-08-01T10:18:00;0.50;;;0.50;;
20721;SDS011;10522;52.198;9.890;2022-08-01T10:20:28;0.63;;;0.63;;
20721;SDS011;10522;52.198;9.890;2022-08-01T10:22:58;1.00;;;0.90;;
20721;SDS011;10522;52.198;9.890;2022-08-01T10:25:24;1.90;;;0.80;;
20721;SDS011;10522;52.198;9.890;2022-08-01T10:27:53;0.67;;;0.67;;
20721;SDS011;10522;52.198;9.890;2022-08-01T10:30:22;0.90;;;0.90;;
20721;SDS011;10522;52.198;9.890;2022-08-01T10:32:49;2.07;;;1.00;;
20721;SDS011;10522;52.198;9.890;2022-08-01T10:35:17;1.20;;;0.83;;
20721;SDS011;10522;52.198;9.890;2022-08-01T10:37:44;1.17;;;0.90;;
20721;SDS011;10522;52.198;9.890;2022-08-01T10:40:15;1.80;;;0.80;;
20721;SDS011;10522;52.198;9.890;2022-08-01T10:42:41;0.63;;;0.63;;
20721;SDS011;10522;52.198;9.890;2022-08-01T10:45:12;1.87;;;0.87;;
20721;SDS011;10522;52.198;9.890;2022-08-01T10:47:41;1.60;;;0.90;;
20721;SDS011;10522;52.198;9.890;2022-08-01T10:50:16;0.73;;;0.70;;
20721;SDS011;10522;52.198;9.890;2022-08-01T10:53:07;1.57;;;0.80;;
20721;SDS011;10522;52.198;9.890;2022-08-01T10:55:52;1.67;;;1.03;;
20721;SDS011;10522;52.198;9.890;2022-08-01T10:58:25;1.40;;;1.10;;
20721;SDS011;10522;52.198;9.890;2022-08-01T11:06:20;0.90;;;0.90;;
20721;SDS011;10522;52.198;9.890;2022-08-01T11:09:26;1.10;;;1.00;;
20721;SDS011;10522;52.198;9.890;2022-08-01T11:11:58;1.60;;;1.00;;
20721;SDS011;10522;52.198;9.890;2022-08-01T11:14:33;1.00;;;0.90;;
20721;SDS011;10522;52.198;9.890;2022-08-01T11:22:58;2.63;;;1.53;;
20721;SDS011;10522;52.198;9.890;2022-08-01T11:26:10;1.20;;;1.10;;
20721;SDS011;10522;52.198;9.890;2022-08-01T11:30:39;4.30;;;2.03;;
20721;SDS011;10522;52.198;9.890;2022-08-01T11:33:05;1.70;;;1.60;;
20721;SDS011;10522;52.198;9.890;2022-08-01T11:35:31;1.90;;;1.37;;
20721;SDS011;10522;52.198;9.890;2022-08-01T11:37:57;1.43;;;1.27;;
20721;SDS011;10522;52.198;9.890;2022-08-01T11:43:56;3.57;;;2.27;;
20721;SDS011;10522;52.198;9.890;2022-08-01T11:52:05;2.80;;;2.50;;
20721;SDS011;10522;52.198;9.890;2022-08-01T11:54:32;3.53;;;2.60;;
20721;SDS011;10522;52.198;9.890;2022-08-01T11:57:01;3.53;;;2.00;;
20721;SDS011;10522;52.198;9.890;2022-08-01T11:59:35;2.63;;;2.07;;
20721;SDS011;10522;52.198;9.890;2022-08-01T12:02:22;3.47;;;2.27;;
20721;SDS011;10522;52.198;9.890;2022-08-01T12:05:04;2.40;;;2.20;;
20721;SDS011;10522;52.198;9.890;2022-08-01T12:07:31;6.13;;;2.40;;
20721;SDS011;10522;52.198;9.890;2022-08-01T12:12:26;4.23;;;2.27;;
20721;SDS011;10522;52.198;9.890;2022-08-01T12:14:56;4.53;;;2.70;;
20721;SDS011;10522;52.198;9.890;2022-08-01T12:17:42;2.73;;;2.17;;
20721;SDS011;10522;52.198;9.890;2022-08-01T12:20:11;2.87;;;2.07;;
20721;SDS011;10522;52.198;9.890;2022-08-01T12:22:38;3.63;;;1.80;;
20721;SDS011;10522;52.198;9.890;2022-08-01T12:27:33;3.57;;;2.00;;
20721;SDS011;10522;52.198;9.890;2022-08-01T12:29:59;3.50;;;1.77;;
20721;SDS011;10522;52.198;9.890;2022-08-01T12:34:56;5.53;;;2.10;;
20721;SDS011;10522;52.198;9.890;2022-08-01T12:37:34;5.40;;;2.03;;
20721;SDS011;10522;52.198;9.890;2022-08-01T12:40:14;2.97;;;2.20;;
20721;SDS011;10522;52.198;9.890;2022-08-01T12:42:40;2.67;;;1.87;;
20721;SDS011;10522;52.198;9.890;2022-08-01T12:45:07;5.00;;;1.70;;
20721;SDS011;10522;52.198;9.890;2022-08-01T12:47:35;3.33;;;1.43;;
20721;SDS011;10522;52.198;9.890;2022-08-01T12:50:02;5.77;;;2.50;;
20721;SDS011;10522;52.198;9.890;2022-08-01T12:52:29;3.37;;;1.60;;
20721;SDS011;10522;52.198;9.890;2022-08-01T12:55:00;4.63;;;2.10;;
20721;SDS011;10522;52.198;9.890;2022-08-01T12:57:27;2.33;;;1.90;;
20721;SDS011;10522;52.198;9.890;2022-08-01T12:59:52;4.10;;;1.80;;
20721;SDS011;10522;52.198;9.890;2022-08-01T13:02:18;2.83;;;1.80;;
20721;SDS011;10522;52.198;9.890;2022-08-01T13:04:50;3.33;;;1.30;;
20721;SDS011;10522;52.198;9.890;2022-08-01T13:07:16;3.33;;;2.03;;
20721;SDS011;10522;52.198;9.890;2022-08-01T13:09:49;7.67;;;2.53;;
20721;SDS011;10522;52.198;9.890;2022-08-01T13:12:15;3.77;;;2.10;;
20721;SDS011;10522;52.198;9.890;2022-08-01T13:14:40;5.10;;;2.10;;
20721;SDS011;10522;52.198;9.890;2022-08-01T13:17:06;3.90;;;1.70;;
20721;SDS011;10522;52.198;9.890;2022-08-01T13:19:44;2.70;;;1.73;;
20721;SDS011;10522;52.198;9.890;2022-08-01T13:22:12;3.93;;;1.70;;
20721;SDS011;10522;52.198;9.890;2022-08-01T13:24:37;5.53;;;2.13;;
20721;SDS011;10522;52.198;9.890;2022-08-01T13:27:04;2.03;;;1.80;;
20721;SDS011;10522;52.198;9.890;2022-08-01T13:31:59;4.10;;;2.27;;
20721;SDS011;10522;52.198;9.890;2022-08-01T13:34:36;3.83;;;2.30;;
20721;SDS011;10522;52.198;9.890;2022-08-01T13:37:02;4.53;;;3.87;;
20721;SDS011;10522;52.198;9.890;2022-08-01T13:39:30;3.20;;;2.87;;
20721;SDS011;10522;52.198;9.890;2022-08-01T13:42:05;2.43;;;2.07;;
20721;SDS011;10522;52.198;9.890;2022-08-01T13:44:31;2.77;;;2.03;;
20721;SDS011;10522;52.198;9.890;2022-08-01T13:46:56;3.07;;;2.10;;
20721;SDS011;10522;52.198;9.890;2022-08-01T13:49:22;6.17;;;2.80;;
20721;SDS011;10522;52.198;9.890;2022-08-01T13:51:47;3.57;;;2.40;;
20721;SDS011;10522;52.198;9.890;2022-08-01T13:54:14;2.53;;;2.13;;
20721;SDS011;10522;52.198;9.890;2022-08-01T13:56:40;3.83;;;2.97;;
20721;SDS011;10522;52.198;9.890;2022-08-01T13:59:06;4.77;;;2.83;;
20721;SDS011;10522;52.198;9.890;2022-08-01T14:01:32;5.00;;;3.10;;
20721;SDS011;10522;52.198;9.890;2022-08-01T14:03:58;5.10;;;3.10;;
20721;SDS011;10522;52.198;9.890;2022-08-01T14:06:24;6.47;;;3.70;;
20721;SDS011;10522;52.198;9.890;2022-08-01T14:08:50;3.80;;;2.63;;
20721;SDS011;10522;52.198;9.890;2022-08-01T14:11:15;4.13;;;2.60;;
20721;SDS011;10522;52.198;9.890;2022-08-01T14:13:41;4.73;;;3.13;;
20721;SDS011;10522;52.198;9.890;2022-08-01T14:16:07;4.20;;;1.93;;
20721;SDS011;10522;52.198;9.890;2022-08-01T14:18:32;4.23;;;2.03;;
20721;SDS011;10522;52.198;9.890;2022-08-01T14:20:58;4.50;;;2.30;;
20721;SDS011;10522;52.198;9.890;2022-08-01T14:23:24;3.23;;;2.00;;
20721;SDS011;10522;52.198;9.890;2022-08-01T14:25:50;5.27;;;2.13;;
20721;SDS011;10522;52.198;9.890;2022-08-01T14:28:16;4.00;;;2.37;;
20721;SDS011;10522;52.198;9.890;2022-08-01T14:30:41;2.57;;;1.97;;
20721;SDS011;10522;52.198;9.890;2022-08-01T14:33:07;2.27;;;1.80;;
20721;SDS011;10522;52.198;9.890;2022-08-01T14:35:33;6.70;;;2.50;;
20721;SDS011;10522;52.198;9.890;2022-08-01T14:37:59;4.30;;;2.47;;
20721;SDS011;10522;52.198;9.890;2022-08-01T14:40:24;4.47;;;2.13;;
20721;SDS011;10522;52.198;9.890;2022-08-01T14:42:50;7.23;;;2.00;;
20721;SDS011;10522;52.198;9.890;2022-08-01T14:45:15;4.40;;;2.40;;
20721;SDS011;10522;52.198;9.890;2022-08-01T14:47:41;7.17;;;2.40;;
20721;SDS011;10522;52.198;9.890;2022-08-01T14:50:08;3.97;;;2.20;;
20721;SDS011;10522;52.198;9.890;2022-08-01T14:52:36;4.20;;;2.43;;
20721;SDS011;10522;52.198;9.890;2022-08-01T14:55:03;2.57;;;2.37;;
20721;SDS011;10522;52.198;9.890;2022-08-01T14:57:30;4.17;;;2.43;;
20721;SDS011;10522;52.198;9.890;2022-08-01T14:59:56;4.03;;;1.90;;
20721;SDS011;10522;52.198;9.890;2022-08-01T15:02:21;2.97;;;2.30;;
20721;SDS011;10522;52.198;9.890;2022-08-01T15:04:47;4.60;;;2.60;;
20721;SDS011;10522;52.198;9.890;2022-08-01T15:07:13;3.50;;;2.53;;
20721;SDS011;10522;52.198;9.890;2022-08-01T15:09:40;3.40;;;2.30;;
20721;SDS011;10522;52.198;9.890;2022-08-01T15:12:07;3.07;;;2.20;;
20721;SDS011;10522;52.198;9.890;2022-08-01T15:14:33;4.07;;;2.57;;
20721;SDS011;10522;52.198;9.890;2022-08-01T15:17:17;3.07;;;2.57;;
20721;SDS011;10522;52.198;9.890;2022-08-01T15:19:47;6.73;;;3.17;;
20721;SDS011;10522;52.198;9.890;2022-08-01T15:22:14;4.67;;;3.07;;
20721;SDS011;10522;52.198;9.890;2022-08-01T15:24:39;3.23;;;2.53;;
20721;SDS011;10522;52.198;9.890;2022-08-01T15:27:06;6.87;;;3.10;;
20721;SDS011;10522;52.198;9.890;2022-08-01T15:29:32;3.70;;;3.03;;
20721;SDS011;10522;52.198;9.890;2022-08-01T15:31:58;4.27;;;2.57;;
20721;SDS011;10522;52.198;9.890;2022-08-01T15:34:25;5.33;;;3.40;;
20721;SDS011;10522;52.198;9.890;2022-08-01T15:36:50;4.97;;;2.67;;
20721;SDS011;10522;52.198;9.890;2022-08-01T15:39:16;5.37;;;3.17;;
20721;SDS011;10522;52.198;9.890;2022-08-01T15:41:42;5.47;;;2.80;;
20721;SDS011;10522;52.198;9.890;2022-08-01T15:44:07;4.37;;;2.60;;
20721;SDS011;10522;52.198;9.890;2022-08-01T15:46:33;4.77;;;3.57;;
20721;SDS011;10522;52.198;9.890;2022-08-01T15:49:01;7.50;;;3.40;;
20721;SDS011;10522;52.198;9.890;2022-08-01T15:51:29;4.80;;;2.83;;